Terminal Aerodrome Forecast
Issued by NWS

Home | Current Version | Previous Version | Text Only | Print | Product List | Glossary On
Versions: 1 2 3 4 5 6 7 8 9 10 11 12 13 14 15 16
000
FTUS46 KLOX 210100 AAA
TAFBUR
TAF AMD
KBUR 210107Z 2101/2124 18008KT P6SM SKC
     FM210400 17005KT P6SM SCT011
     FM210800 16004KT P6SM OVC015
     FM211100 17005KT 6SM -DZ BR BKN010 OVC020
     FM211800 18009KT P6SM SCT020=

USA.gov is the U.S. government's official web portal to all federal, state and local government web resources and services.